createdAt,value
2018-10-21T00:01:11.240Z,80.30
2018-10-21T00:03:39.652Z,80.76
2018-10-21T00:06:07.980Z,80.71
2018-10-21T00:08:36.311Z,80.18
2018-10-21T00:11:04.676Z,79.74
2018-10-21T00:13:33.273Z,79.20
2018-10-21T00:16:01.688Z,79.50
2018-10-21T00:18:30.062Z,79.84
2018-10-21T00:20:58.415Z,79.90
2018-10-21T00:23:26.720Z,79.66
2018-10-21T00:25:55.124Z,79.44
2018-10-21T00:28:23.450Z,78.95
2018-10-21T00:30:51.769Z,79.55
2018-10-21T00:33:20.125Z,79.43
2018-10-21T00:35:48.452Z,79.67
2018-10-21T00:38:16.756Z,79.85
2018-10-21T00:40:45.128Z,79.81
2018-10-21T00:43:13.432Z,80.09
2018-10-21T00:45:41.751Z,80.70
2018-10-21T00:48:10.064Z,80.88
2018-10-21T00:50:38.623Z,81.25
2018-10-21T00:53:06.936Z,81.44
2018-10-21T00:55:35.249Z,81.53
2018-10-21T00:58:03.562Z,81.56
2018-10-21T01:00:31.868Z,81.23
2018-10-21T01:03:00.316Z,81.38
2018-10-21T01:05:28.636Z,80.29
2018-10-21T01:07:56.951Z,81.01
2018-10-21T01:10:25.475Z,81.52
2018-10-21T01:12:53.779Z,81.71
2018-10-21T01:15:22.088Z,81.38
2018-10-21T01:17:50.684Z,81.50
2018-10-21T01:20:19.648Z,81.49
2018-10-21T01:22:47.961Z,81.23
2018-10-21T01:25:16.431Z,81.49
2018-10-21T01:27:44.728Z,81.58
2018-10-21T01:30:13.427Z,81.49
2018-10-21T01:32:41.812Z,81.63
2018-10-21T01:35:10.176Z,81.56
2018-10-21T01:37:38.729Z,81.92
2018-10-21T01:40:28.748Z,81.21
2018-10-21T01:42:57.220Z,81.29
2018-10-21T01:45:26.068Z,82.49
2018-10-21T01:47:54.704Z,82.96
2018-10-21T01:50:23.744Z,82.81
2018-10-21T01:52:52.069Z,82.79
2018-10-21T01:55:20.384Z,83.14
2018-10-21T01:57:48.708Z,83.17
2018-10-21T02:00:18.038Z,83.02
2018-10-21T02:02:46.608Z,83.26
2018-10-21T02:05:15.052Z,83.39
2018-10-21T02:07:43.471Z,83.70
2018-10-21T02:10:11.856Z,84.10
2018-10-21T02:12:40.232Z,85.01
2018-10-21T02:15:09.519Z,85.00
2018-10-21T02:17:37.748Z,85.01
2018-10-21T02:20:07.203Z,85.23
2018-10-21T02:22:35.520Z,85.30
2018-10-21T02:25:04.047Z,85.20
2018-10-21T02:27:32.624Z,85.41
2018-10-21T02:30:00.981Z,85.95
2018-10-21T02:32:30.360Z,86.67
2018-10-21T02:34:58.889Z,86.79
2018-10-21T02:37:27.241Z,86.83
2018-10-21T02:39:55.582Z,87.08
2018-10-21T02:42:24.037Z,87.13
2018-10-21T02:44:52.376Z,87.30
2018-10-21T02:47:20.757Z,87.68
2018-10-21T02:49:49.150Z,87.35
2018-10-21T02:52:17.497Z,87.18
2018-10-21T02:54:45.877Z,87.40
2018-10-21T02:57:15.149Z,87.82
2018-10-21T02:59:43.415Z,87.54
2018-10-21T03:02:11.790Z,87.41
2018-10-21T03:04:40.144Z,87.55
2018-10-21T03:07:08.516Z,87.26
2018-10-21T03:09:36.848Z,86.44
2018-10-21T03:12:05.605Z,86.49
2018-10-21T03:14:33.951Z,86.49
2018-10-21T03:17:02.305Z,86.65
2018-10-21T03:19:30.699Z,86.71
2018-10-21T03:21:59.040Z,87.58
2018-10-21T03:24:27.368Z,87.20
2018-10-21T03:26:55.741Z,86.93
2018-10-21T03:29:24.101Z,86.75
2018-10-21T03:31:52.477Z,86.61
2018-10-21T03:34:20.889Z,86.60
2018-10-21T03:36:49.248Z,86.46
2018-10-21T03:39:17.581Z,86.15
2018-10-21T03:41:45.920Z,85.94
2018-10-21T03:44:14.307Z,85.46
2018-10-21T03:46:42.772Z,85.04
2018-10-21T03:49:11.101Z,85.08
2018-10-21T03:51:39.531Z,85.14
2018-10-21T03:54:08.901Z,85.63
2018-10-21T03:56:37.226Z,85.50
2018-10-21T03:59:05.818Z,86.23
2018-10-21T04:01:34.145Z,86.23
2018-10-21T04:04:02.505Z,85.84
2018-10-21T04:06:30.874Z,85.56
2018-10-21T04:08:59.208Z,85.58
2018-10-21T04:11:27.544Z,85.62
2018-10-21T04:13:55.890Z,85.93
2018-10-21T04:16:24.212Z,85.57
2018-10-21T04:18:52.660Z,85.68
2018-10-21T04:21:20.976Z,86.02
2018-10-21T04:23:49.361Z,86.15
2018-10-21T04:26:17.672Z,86.43
2018-10-21T04:28:46.009Z,86.62
2018-10-21T04:31:14.332Z,87.09
2018-10-21T04:33:43.895Z,86.94
2018-10-21T04:36:13.999Z,86.84
2018-10-21T04:38:55.508Z,86.73
2018-10-21T04:41:23.841Z,86.57
2018-10-21T04:43:52.188Z,86.81
2018-10-21T04:46:20.687Z,87.41
2018-10-21T04:48:49.001Z,87.55
2018-10-21T04:51:17.352Z,88.63
2018-10-21T04:53:45.993Z,89.58
2018-10-21T04:56:14.332Z,89.83
2018-10-21T04:58:42.668Z,90.60
2018-10-21T05:01:11.036Z,89.88
2018-10-21T05:03:40.372Z,89.46
2018-10-21T05:06:08.780Z,89.97
2018-10-21T05:08:37.116Z,90.03
2018-10-21T05:11:05.939Z,89.67
2018-10-21T05:13:35.339Z,90.58
2018-10-21T05:16:03.725Z,91.46
2018-10-21T05:18:32.132Z,91.16
2018-10-21T05:28:10.018Z,92.66
2018-10-21T05:30:38.368Z,93.54
2018-10-21T05:33:06.824Z,93.30
2018-10-21T05:35:35.225Z,93.86
2018-10-21T05:38:03.668Z,93.97
2018-10-21T05:40:32.017Z,94.26
2018-10-21T05:43:00.352Z,93.85
2018-10-21T05:45:28.697Z,95.25
2018-10-21T05:47:58.237Z,95.43
2018-10-21T05:50:26.892Z,95.48
2018-10-21T05:52:55.300Z,95.46
2018-10-21T05:55:23.880Z,95.54
2018-10-21T05:57:52.251Z,95.38
2018-10-21T06:00:21.131Z,94.79
2018-10-21T06:02:49.581Z,93.79
2018-10-21T06:05:44.176Z,93.62
2018-10-21T06:08:12.565Z,93.61
2018-10-21T06:10:41.664Z,93.34
2018-10-21T06:13:10.220Z,93.07
2018-10-21T06:15:42.164Z,92.66
2018-10-21T06:18:17.899Z,92.78
2018-10-21T06:20:49.244Z,92.40
2018-10-21T06:23:17.559Z,91.76
2018-10-21T06:25:45.875Z,91.15
2018-10-21T06:28:14.248Z,90.94
2018-10-21T06:30:42.612Z,91.31
2018-10-21T06:33:10.999Z,91.45
2018-10-21T06:35:39.283Z,90.02
2018-10-21T06:38:07.615Z,90.07
2018-10-21T06:40:35.945Z,90.55
2018-10-21T06:43:04.318Z,89.90
2018-10-21T06:45:32.708Z,89.87
2018-10-21T06:48:01.019Z,89.75
2018-10-21T06:50:29.349Z,89.68
2018-10-21T06:52:57.676Z,89.78
2018-10-21T06:55:26.023Z,89.48
2018-10-21T06:57:55.351Z,89.17
2018-10-21T07:00:23.683Z,89.18
2018-10-21T07:02:52.040Z,90.04
2018-10-21T07:05:31.660Z,90.52
2018-10-21T07:08:00.059Z,90.26
2018-10-21T07:10:28.545Z,89.30
2018-10-21T07:12:56.901Z,89.18
2018-10-21T07:15:25.419Z,88.73
2018-10-21T07:17:53.683Z,88.63
2018-10-21T07:20:22.037Z,88.42
2018-10-21T07:22:50.453Z,89.12
2018-10-21T07:25:18.873Z,88.45
2018-10-21T07:27:48.334Z,87.51
2018-10-21T07:30:17.768Z,88.47
2018-10-21T07:32:46.150Z,88.02
2018-10-21T07:35:15.174Z,88.14
2018-10-21T07:37:45.677Z,87.14
2018-10-21T07:40:14.198Z,87.64
2018-10-21T07:42:43.627Z,86.78
2018-10-21T07:45:12.131Z,86.93
2018-10-21T07:47:40.546Z,86.55
2018-10-21T07:50:08.916Z,85.57
2018-10-21T07:52:37.282Z,85.42
2018-10-21T07:55:05.793Z,84.83
2018-10-21T07:57:34.097Z,84.58
2018-10-21T08:00:02.480Z,83.91
2018-10-21T08:02:30.850Z,84.08
2018-10-21T08:04:59.192Z,83.45
2018-10-21T08:07:39.001Z,83.10
2018-10-21T08:10:07.441Z,83.35
2018-10-21T08:12:35.768Z,84.01
2018-10-21T08:15:04.185Z,84.46
2018-10-21T08:17:32.541Z,83.98
2018-10-21T08:20:00.945Z,83.64
2018-10-21T08:22:29.305Z,85.22
2018-10-21T08:24:57.665Z,85.49
2018-10-21T08:27:26.087Z,84.75
2018-10-21T08:29:54.437Z,84.00
2018-10-21T08:32:22.792Z,83.34
2018-10-21T08:34:51.235Z,84.68
2018-10-21T08:37:19.620Z,84.46
2018-10-21T08:39:48.179Z,83.28
2018-10-21T08:42:16.524Z,83.31
2018-10-21T08:44:44.885Z,82.59
2018-10-21T08:47:13.262Z,83.47
2018-10-21T08:49:41.626Z,84.94
2018-10-21T08:52:10.009Z,83.45
2018-10-21T08:54:38.364Z,82.26
2018-10-21T08:57:07.036Z,83.01
2018-10-21T08:59:35.400Z,81.40
2018-10-21T09:02:03.770Z,81.34
2018-10-21T09:04:32.133Z,81.86
2018-10-21T09:07:00.508Z,81.26
2018-10-21T09:09:28.854Z,81.70
2018-10-21T09:11:57.227Z,82.30
2018-10-21T09:14:25.592Z,82.13
2018-10-21T09:16:53.942Z,81.61
2018-10-21T09:19:22.484Z,80.54
2018-10-21T09:21:50.860Z,79.78
2018-10-21T09:24:19.527Z,79.77
2018-10-21T09:26:47.909Z,78.94
2018-10-21T09:29:16.253Z,78.79
2018-10-21T09:31:44.738Z,79.29
2018-10-21T09:34:13.161Z,77.46
2018-10-21T09:36:41.486Z,79.49
2018-10-21T09:39:12.857Z,79.77
2018-10-21T09:41:41.632Z,78.96
2018-10-21T09:44:10.717Z,78.53
2018-10-21T09:46:39.612Z,78.55
2018-10-21T09:49:08.644Z,78.31
2018-10-21T09:51:37.393Z,77.49
2018-10-21T09:54:05.946Z,79.56
2018-10-21T09:56:34.567Z,80.50
2018-10-21T09:59:02.949Z,79.14
2018-10-21T10:01:36.570Z,77.76
2018-10-21T10:04:05.152Z,77.49
2018-10-21T10:06:33.536Z,76.19
2018-10-21T10:09:01.877Z,76.26
2018-10-21T10:11:30.285Z,76.19
2018-10-21T10:13:58.646Z,76.54
2018-10-21T10:16:26.996Z,76.24
2018-10-21T10:18:55.364Z,76.52
2018-10-21T10:21:23.715Z,77.25
2018-10-21T10:23:52.095Z,77.25
2018-10-21T10:26:20.433Z,76.39
2018-10-21T10:28:48.789Z,76.90
2018-10-21T10:31:17.184Z,78.08
2018-10-21T10:33:45.501Z,78.05
2018-10-21T10:36:13.969Z,78.89
2018-10-21T10:38:42.261Z,78.28
2018-10-21T10:41:10.611Z,76.93
2018-10-21T10:43:38.988Z,75.39
2018-10-21T10:46:07.360Z,74.57
2018-10-21T10:48:35.667Z,74.59
2018-10-21T10:51:04.259Z,74.28
2018-10-21T10:53:32.605Z,74.03
2018-10-21T10:56:00.936Z,75.20
2018-10-21T10:58:29.301Z,75.00
2018-10-21T11:00:57.759Z,74.24
2018-10-21T11:03:26.103Z,73.02
2018-10-21T11:05:54.475Z,71.88
2018-10-21T11:08:22.808Z,73.03
2018-10-21T11:10:51.180Z,73.72
2018-10-21T11:13:19.677Z,73.99
2018-10-21T11:15:48.335Z,74.70
2018-10-21T11:18:16.769Z,74.28
2018-10-21T11:20:45.125Z,74.78
2018-10-21T11:23:13.481Z,74.18
2018-10-21T11:25:41.981Z,72.91
2018-10-21T11:28:10.459Z,72.82
2018-10-21T11:30:39.808Z,71.67
2018-10-21T11:33:08.206Z,72.13
2018-10-21T11:35:36.545Z,71.93
2018-10-21T11:38:06.237Z,70.20
2018-10-21T11:40:34.604Z,70.37
2018-10-21T11:43:02.996Z,68.82
2018-10-21T11:45:31.685Z,70.95
2018-10-21T11:48:00.163Z,70.74
2018-10-21T11:50:28.533Z,70.09
2018-10-21T11:52:56.922Z,69.37
2018-10-21T11:55:25.337Z,68.25
2018-10-21T11:57:58.603Z,68.63
2018-10-21T12:00:27.157Z,67.89
2018-10-21T12:02:55.504Z,68.04
2018-10-21T12:05:23.848Z,69.05
2018-10-21T12:07:52.484Z,70.42
2018-10-21T12:10:20.861Z,70.43
2018-10-21T12:12:49.210Z,69.77
2018-10-21T12:15:17.580Z,69.08
2018-10-21T12:17:47.023Z,70.32
2018-10-21T12:20:15.356Z,71.01
2018-10-21T12:22:43.869Z,71.00
2018-10-21T12:25:12.364Z,71.05
2018-10-21T12:27:40.611Z,70.27
2018-10-21T12:30:09.411Z,70.91
2018-10-21T12:32:37.964Z,72.00
2018-10-21T12:35:08.913Z,71.96
2018-10-21T12:37:37.346Z,72.03
2018-10-21T12:40:06.916Z,70.55
2018-10-21T12:42:35.217Z,72.03
2018-10-21T12:45:04.293Z,73.40
2018-10-21T12:47:32.631Z,72.76
2018-10-21T12:50:00.981Z,73.14
2018-10-21T12:52:29.352Z,73.85
2018-10-21T12:54:57.790Z,72.92
2018-10-21T12:57:27.172Z,72.96
2018-10-21T12:59:55.696Z,73.40
2018-10-21T13:02:24.705Z,71.75
2018-10-21T13:04:53.081Z,70.94
2018-10-21T13:07:21.482Z,70.47
2018-10-21T13:09:50.037Z,70.67
2018-10-21T13:12:18.372Z,70.46
2018-10-21T13:14:46.757Z,71.00
2018-10-21T13:17:15.092Z,71.17
2018-10-21T13:19:43.559Z,70.74
2018-10-21T13:22:11.969Z,70.81
2018-10-21T13:24:40.414Z,70.13
2018-10-21T13:27:08.799Z,69.64
2018-10-21T13:29:37.183Z,69.86
2018-10-21T13:32:05.704Z,69.71
2018-10-21T13:34:34.124Z,69.69
2018-10-21T13:37:02.465Z,70.88
2018-10-21T13:39:30.785Z,71.67
2018-10-21T13:41:59.213Z,70.65
2018-10-21T13:44:27.654Z,70.89
2018-10-21T13:46:55.992Z,71.30
2018-10-21T13:49:24.330Z,73.28
2018-10-21T13:51:52.794Z,73.02
2018-10-21T13:54:21.033Z,73.85
2018-10-21T13:56:49.633Z,73.05
2018-10-21T13:59:18.985Z,72.70
2018-10-21T14:01:48.380Z,73.29
2018-10-21T14:04:16.869Z,73.25
2018-10-21T14:06:45.133Z,74.15
2018-10-21T14:09:14.325Z,74.46
2018-10-21T14:11:42.768Z,73.84
2018-10-21T14:14:11.900Z,74.75
2018-10-21T14:16:40.575Z,74.47
2018-10-21T14:19:09.300Z,73.95
2018-10-21T14:21:37.710Z,73.56
2018-10-21T14:24:06.386Z,74.32
2018-10-21T14:26:34.869Z,73.61
2018-10-21T14:29:03.312Z,73.63
2018-10-21T14:31:31.661Z,72.98
2018-10-21T14:34:00.066Z,72.96
2018-10-21T14:36:28.420Z,72.82
2018-10-21T14:38:56.766Z,73.28
2018-10-21T14:41:25.157Z,74.75
2018-10-21T14:43:53.497Z,73.63
2018-10-21T14:46:21.849Z,73.26
2018-10-21T14:48:50.331Z,72.83
2018-10-21T14:51:18.700Z,72.14
2018-10-21T14:53:47.057Z,73.17
2018-10-21T14:56:15.542Z,72.44
2018-10-21T14:58:43.811Z,71.85
2018-10-21T15:01:12.596Z,71.99
2018-10-21T15:03:40.975Z,71.72
2018-10-21T15:06:09.333Z,72.99
2018-10-21T15:08:37.680Z,72.91
2018-10-21T15:11:07.128Z,72.12
2018-10-21T15:13:35.484Z,72.49
2018-10-21T15:16:03.886Z,72.44
2018-10-21T15:18:32.922Z,73.40
2018-10-21T15:21:01.293Z,73.15
2018-10-21T15:23:29.830Z,72.94
2018-10-21T15:25:58.178Z,73.09
2018-10-21T15:28:26.497Z,73.19
2018-10-21T15:30:55.873Z,73.28
2018-10-21T15:33:24.477Z,73.49
2018-10-21T15:35:53.838Z,73.07
2018-10-21T15:38:22.173Z,72.83
2018-10-21T15:40:50.665Z,72.83
2018-10-21T15:43:19.008Z,72.54
2018-10-21T15:45:47.393Z,72.32
2018-10-21T15:48:15.749Z,73.01
2018-10-21T15:50:44.161Z,73.05
2018-10-21T15:53:13.221Z,73.16
2018-10-21T15:55:41.698Z,73.94
2018-10-21T15:58:10.078Z,73.10
2018-10-21T16:00:39.485Z,73.47
2018-10-21T16:03:08.876Z,79.19
2018-10-21T16:05:37.397Z,74.60
2018-10-21T16:08:05.877Z,72.13
2018-10-21T16:10:35.190Z,72.21
2018-10-21T16:13:04.188Z,73.08
2018-10-21T16:15:32.620Z,72.96
2018-10-21T16:18:01.037Z,73.49
2018-10-21T16:20:29.404Z,74.17
2018-10-21T16:22:57.780Z,73.65
2018-10-21T16:25:26.246Z,73.94
2018-10-21T16:27:54.624Z,73.95
2018-10-21T16:30:23.891Z,73.65
2018-10-21T16:32:52.344Z,74.26
2018-10-21T16:35:20.726Z,74.03
2018-10-21T16:37:49.227Z,73.47
2018-10-21T16:40:17.843Z,73.13
2018-10-21T16:42:46.199Z,73.45
2018-10-21T16:45:15.129Z,74.45
2018-10-21T16:47:43.413Z,73.96
2018-10-21T16:50:14.084Z,73.99
2018-10-21T16:52:43.623Z,74.12
2018-10-21T16:55:12.580Z,74.05
2018-10-21T16:57:40.981Z,74.11
2018-10-21T17:00:12.300Z,74.12
2018-10-21T17:02:40.779Z,74.08
2018-10-21T17:05:09.479Z,74.33
2018-10-21T17:07:37.977Z,75.24
2018-10-21T17:10:07.046Z,74.72
2018-10-21T17:12:35.181Z,74.43
2018-10-21T17:15:03.610Z,75.24
2018-10-21T17:17:31.961Z,74.92
2018-10-21T17:20:00.324Z,76.29
2018-10-21T17:22:28.664Z,75.98
2018-10-21T17:24:57.046Z,76.29
2018-10-21T17:27:25.430Z,76.27
2018-10-21T17:29:53.780Z,76.03
2018-10-21T17:32:22.132Z,76.60
2018-10-21T17:34:51.632Z,76.76
2018-10-21T17:37:19.984Z,76.68
2018-10-21T17:39:48.361Z,77.15
2018-10-21T17:42:16.741Z,77.57
2018-10-21T17:44:45.213Z,77.90
2018-10-21T17:47:13.601Z,77.06
2018-10-21T17:49:41.967Z,77.03
2018-10-21T17:52:10.617Z,77.61
2018-10-21T17:54:38.912Z,77.79
2018-10-21T17:57:07.320Z,77.33
2018-10-21T17:59:35.717Z,77.26
2018-10-21T18:02:04.130Z,78.21
2018-10-21T18:04:32.521Z,78.54
2018-10-21T18:07:00.922Z,78.33
2018-10-21T18:09:29.264Z,78.00
2018-10-21T18:11:57.616Z,78.16
2018-10-21T18:14:26.177Z,78.55
2018-10-21T18:16:54.544Z,78.23
2018-10-21T18:19:22.897Z,78.35
2018-10-21T18:21:51.337Z,79.63
2018-10-21T18:24:19.816Z,79.12
2018-10-21T18:26:48.183Z,79.11
2018-10-21T18:29:16.745Z,78.99
2018-10-21T18:31:45.145Z,78.85
2018-10-21T18:34:13.582Z,78.80
2018-10-21T18:36:42.018Z,78.93
2018-10-21T18:39:11.164Z,78.33
2018-10-21T18:41:39.757Z,78.57
2018-10-21T18:44:08.994Z,78.61
2018-10-21T18:46:38.206Z,78.51
2018-10-21T18:49:06.826Z,77.97
2018-10-21T18:51:35.596Z,78.75
2018-10-21T18:54:04.073Z,78.68
2018-10-21T18:56:32.449Z,78.49
2018-10-21T18:59:01.353Z,78.38
2018-10-21T19:01:30.519Z,78.96
2018-10-21T19:03:59.191Z,79.20
2018-10-21T19:06:28.241Z,78.81
2018-10-21T19:08:56.955Z,78.54
2018-10-21T19:11:25.653Z,79.27
2018-10-21T19:13:55.160Z,78.88
2018-10-21T19:16:23.644Z,77.87
2018-10-21T19:18:52.395Z,77.24
2018-10-21T19:21:21.519Z,78.05
2018-10-21T19:23:50.085Z,77.82
2018-10-21T19:26:18.504Z,78.79
2018-10-21T19:28:47.268Z,78.72
2018-10-21T19:31:17.436Z,78.58
2018-10-21T19:33:45.869Z,78.67
2018-10-21T19:36:14.245Z,77.73
2018-10-21T19:38:42.621Z,77.81
2018-10-21T19:41:11.203Z,77.52
2018-10-21T19:43:41.722Z,78.47
2018-10-21T19:46:10.101Z,77.71
2018-10-21T19:48:38.404Z,77.51
2018-10-21T19:51:07.008Z,77.47
2018-10-21T19:53:35.383Z,77.44
2018-10-21T19:56:03.848Z,77.34
2018-10-21T19:58:32.236Z,77.52
2018-10-21T20:01:00.660Z,77.23
2018-10-21T20:03:30.245Z,76.72
2018-10-21T20:05:58.611Z,76.69
2018-10-21T20:08:27.013Z,76.39
2018-10-21T20:10:56.448Z,75.88
2018-10-21T20:13:24.777Z,76.47
2018-10-21T20:15:53.112Z,75.47
2018-10-21T20:18:21.489Z,75.52
2018-10-21T20:20:49.809Z,75.25
2018-10-21T20:23:18.241Z,75.91
2018-10-21T20:25:46.773Z,76.73
2018-10-21T20:28:15.218Z,76.19
2018-10-21T20:30:43.522Z,75.70
2018-10-21T20:33:11.993Z,74.91
2018-10-21T20:35:40.256Z,76.59
2018-10-21T20:38:08.718Z,76.13
2018-10-21T20:40:37.053Z,76.88
2018-10-21T20:43:05.673Z,76.02
2018-10-21T20:45:34.104Z,76.91
2018-10-21T20:48:02.597Z,76.64
2018-10-21T20:50:30.906Z,77.01
2018-10-21T20:52:59.577Z,76.93
2018-10-21T20:55:27.926Z,76.49
2018-10-21T20:57:56.302Z,76.25
2018-10-21T21:00:24.670Z,75.87
2018-10-21T21:02:53.102Z,76.32
2018-10-21T21:05:21.482Z,75.85
2018-10-21T21:07:49.940Z,76.02
2018-10-21T21:10:18.417Z,75.81
2018-10-21T21:12:46.685Z,75.95
2018-10-21T21:15:15.034Z,76.93
2018-10-21T21:17:43.416Z,75.83
2018-10-21T21:20:11.858Z,76.53
2018-10-21T21:22:41.228Z,75.89
2018-10-21T21:25:09.564Z,75.75
2018-10-21T21:27:37.893Z,76.28
2018-10-21T21:30:07.109Z,76.22
2018-10-21T21:32:35.440Z,77.43
2018-10-21T21:35:03.812Z,77.18
2018-10-21T21:37:32.189Z,76.35
2018-10-21T21:40:00.621Z,77.42
2018-10-21T21:42:28.921Z,77.25
2018-10-21T21:44:57.312Z,77.30
2018-10-21T21:47:25.765Z,77.24
2018-10-21T21:49:54.108Z,76.97
2018-10-21T21:52:22.493Z,76.30
2018-10-21T21:54:51.132Z,76.93
2018-10-21T21:57:19.476Z,77.57
2018-10-21T21:59:47.870Z,78.18
2018-10-21T22:02:16.244Z,78.44
2018-10-21T22:04:44.782Z,78.23
2018-10-21T22:07:13.325Z,78.69
2018-10-21T22:09:41.660Z,77.46
2018-10-21T22:12:10.144Z,77.40
2018-10-21T22:14:38.485Z,76.66
2018-10-21T22:17:06.808Z,76.46
2018-10-21T22:19:35.272Z,76.26
2018-10-21T22:22:03.686Z,76.07
2018-10-21T22:24:31.992Z,75.54
2018-10-21T22:27:00.344Z,75.83
2018-10-21T22:29:28.713Z,76.52
2018-10-21T22:31:57.044Z,75.88
2018-10-21T22:34:25.377Z,75.89
2018-10-21T22:36:57.185Z,75.38
2018-10-21T22:39:25.608Z,76.20
2018-10-21T22:41:53.963Z,75.51
2018-10-21T22:44:22.313Z,76.09
2018-10-21T22:46:50.811Z,75.71
2018-10-21T22:49:19.057Z,76.05
2018-10-21T22:51:47.381Z,75.85
2018-10-21T22:54:15.813Z,75.62
2018-10-21T22:56:44.257Z,75.90
2018-10-21T22:59:12.600Z,76.05
2018-10-21T23:01:40.932Z,76.36
2018-10-21T23:04:10.307Z,76.71
2018-10-21T23:06:38.581Z,76.15
2018-10-21T23:09:08.917Z,75.48
2018-10-21T23:11:37.426Z,75.58
2018-10-21T23:14:06.013Z,75.36
2018-10-21T23:16:34.340Z,75.01
2018-10-21T23:19:14.197Z,75.17
2018-10-21T23:21:42.522Z,76.20
2018-10-21T23:24:10.951Z,75.74
2018-10-21T23:26:39.428Z,75.90
2018-10-21T23:29:07.878Z,76.10
2018-10-21T23:31:36.168Z,75.59
2018-10-21T23:34:05.055Z,75.77
2018-10-21T23:36:33.404Z,76.43
2018-10-21T23:39:01.837Z,77.24
2018-10-21T23:41:30.196Z,77.12
2018-10-21T23:43:58.547Z,77.53
2018-10-21T23:46:27.476Z,78.10
2018-10-21T23:48:55.840Z,77.82
2018-10-21T23:51:24.184Z,79.94
2018-10-21T23:53:52.816Z,81.42
2018-10-21T23:56:21.260Z,82.51
2018-10-21T23:58:49.831Z,82.41
